sensor_id;sensor_type;location;lat;lon;timestamp;pressure;altitude;pressure_sealevel;temperature;humidity
68891;BME280;55932;48.702;8.884;2023-11-19T00:00:45;96090;;;7.3;76
68891;BME280;55932;48.702;8.884;2023-11-19T00:08:17;96080;;;8;75
68891;BME280;55932;48.702;8.884;2023-11-19T00:10:48;96070;;;8.1;75
68891;BME280;55932;48.702;8.884;2023-11-19T00:13:26;96060;;;8.2;75
68891;BME280;55932;48.702;8.884;2023-11-19T00:15:51;96060;;;8.2;75
68891;BME280;55932;48.702;8.884;2023-11-19T00:20:52;96060;;;8.3;75
68891;BME280;55932;48.702;8.884;2023-11-19T00:23:23;96070;;;8.3;75
68891;BME280;55932;48.702;8.884;2023-11-19T00:25:54;96070;;;8.3;75
68891;BME280;55932;48.702;8.884;2023-11-19T00:30:57;96030;;;8.4;75
68891;BME280;55932;48.702;8.884;2023-11-19T00:33:27;96050;;;8.4;75.5
68891;BME280;55932;48.702;8.884;2023-11-19T00:35:58;96050;;;8.4;75.5
68891;BME280;55932;48.702;8.884;2023-11-19T00:38:36;96040;;;8.5;75
68891;BME280;55932;48.702;8.884;2023-11-19T00:41:00;96020;;;8.5;75
68891;BME280;55932;48.702;8.884;2023-11-19T00:46:06;96020;;;8.5;75.5
68891;BME280;55932;48.702;8.884;2023-11-19T00:48:34;96020;;;8.5;75
68891;BME280;55932;48.702;8.884;2023-11-19T00:51:11;96020;;;8.6;75
68891;BME280;55932;48.702;8.884;2023-11-19T01:01:09;96010;;;8.6;75.5
68891;BME280;55932;48.702;8.884;2023-11-19T01:03:38;96010;;;8.7;75.5
68891;BME280;55932;48.702;8.884;2023-11-19T01:08:47;96000;;;8.7;75.5
68891;BME280;55932;48.702;8.884;2023-11-19T01:11:21;96010;;;8.7;75.5
68891;BME280;55932;48.702;8.884;2023-11-19T01:13:49;96010;;;8.8;75.5
68891;BME280;55932;48.702;8.884;2023-11-19T01:16:13;96000;;;8.8;75.5
68891;BME280;55932;48.702;8.884;2023-11-19T01:23:46;95990;;;8.8;75.5
68891;BME280;55932;48.702;8.884;2023-11-19T01:26:17;95980;;;8.8;75.5
68891;BME280;55932;48.702;8.884;2023-11-19T01:28:54;95980;;;8.8;75.5
68891;BME280;55932;48.702;8.884;2023-11-19T01:33:50;95980;;;8.9;75.5
68891;BME280;55932;48.702;8.884;2023-11-19T01:36:21;95990;;;8.9;75.5
68891;BME280;55932;48.702;8.884;2023-11-19T01:38:51;95990;;;8.9;75.5
68891;BME280;55932;48.702;8.884;2023-11-19T01:41:23;95990;;;8.9;75.5
68891;BME280;55932;48.702;8.884;2023-11-19T01:46:25;95980;;;8.9;75.5
68891;BME280;55932;48.702;8.884;2023-11-19T01:54:04;95990;;;9;75.5
68891;BME280;55932;48.702;8.884;2023-11-19T02:01:31;95970;;;9;75.5
68891;BME280;55932;48.702;8.884;2023-11-19T02:06:32;95980;;;9;75.5
68891;BME280;55932;48.702;8.884;2023-11-19T02:09:10;95980;;;9;75.5
68891;BME280;55932;48.702;8.884;2023-11-19T02:11:34;95980;;;9.1;75.5
68891;BME280;55932;48.702;8.884;2023-11-19T02:14:05;95980;;;9.1;75.5
68891;BME280;55932;48.702;8.884;2023-11-19T02:16:36;95960;;;9.1;75.5
68891;BME280;55932;48.702;8.884;2023-11-19T02:21:44;95960;;;9.1;75.5
68891;BME280;55932;48.702;8.884;2023-11-19T02:31:42;95960;;;9.2;75.5
68891;BME280;55932;48.702;8.884;2023-11-19T02:34:13;95960;;;9.2;75.5
68891;BME280;55932;48.702;8.884;2023-11-19T02:36:44;95960;;;9.2;75
68891;BME280;55932;48.702;8.884;2023-11-19T02:39:15;95960;;;9.2;75
68891;BME280;55932;48.702;8.884;2023-11-19T02:41:46;95960;;;9.2;75
68891;BME280;55932;48.702;8.884;2023-11-19T02:44:17;95950;;;9.3;75
68891;BME280;55932;48.702;8.884;2023-11-19T02:46:48;95970;;;9.3;75.5
68891;BME280;55932;48.702;8.884;2023-11-19T02:49:19;95960;;;9.3;75
68891;BME280;55932;48.702;8.884;2023-11-19T02:51:57;95960;;;9.3;75
68891;BME280;55932;48.702;8.884;2023-11-19T03:04:31;95970;;;9.4;75
68891;BME280;55932;48.702;8.884;2023-11-19T03:06:58;95970;;;9.4;75
68891;BME280;55932;48.702;8.884;2023-11-19T03:09:26;95980;;;9.4;75
68891;BME280;55932;48.702;8.884;2023-11-19T03:11:58;95960;;;9.4;75
68891;BME280;55932;48.702;8.884;2023-11-19T03:14:29;95960;;;9.5;75
68891;BME280;55932;48.702;8.884;2023-11-19T03:16:59;95960;;;9.5;75
68891;BME280;55932;48.702;8.884;2023-11-19T03:22:08;95960;;;9.5;75
68891;BME280;55932;48.702;8.884;2023-11-19T03:29:34;95960;;;9.5;75.5
68891;BME280;55932;48.702;8.884;2023-11-19T03:32:05;95960;;;9.5;75
68891;BME280;55932;48.702;8.884;2023-11-19T03:34:38;95960;;;9.5;75.5
68891;BME280;55932;48.702;8.884;2023-11-19T03:37:07;95960;;;9.5;75.5
68891;BME280;55932;48.702;8.884;2023-11-19T03:39:38;95950;;;9.5;75.5
68891;BME280;55932;48.702;8.884;2023-11-19T03:42:09;95950;;;9.5;75.5
68891;BME280;55932;48.702;8.884;2023-11-19T03:44:40;95940;;;9.5;75.5
68891;BME280;55932;48.702;8.884;2023-11-19T03:47:11;95950;;;9.6;75.5
68891;BME280;55932;48.702;8.884;2023-11-19T03:49:49;95950;;;9.6;75.5
68891;BME280;55932;48.702;8.884;2023-11-19T03:52:20;95940;;;9.6;75
68891;BME280;55932;48.702;8.884;2023-11-19T03:59:48;95940;;;9.6;75.5
68891;BME280;55932;48.702;8.884;2023-11-19T04:02:17;95940;;;9.6;75.5
68891;BME280;55932;48.702;8.884;2023-11-19T04:04:48;95930;;;9.6;75.5
68891;BME280;55932;48.702;8.884;2023-11-19T04:07:19;95930;;;9.6;75.5
68891;BME280;55932;48.702;8.884;2023-11-19T04:12:21;95960;;;9.7;75.5
68891;BME280;55932;48.702;8.884;2023-11-19T04:17:23;95950;;;9.7;75.5
68891;BME280;55932;48.702;8.884;2023-11-19T04:22:25;95950;;;9.8;75.5
68891;BME280;55932;48.702;8.884;2023-11-19T04:24:55;95960;;;9.9;75.5
68891;BME280;55932;48.702;8.884;2023-11-19T04:32:28;95970;;;10;75.5
68891;BME280;55932;48.702;8.884;2023-11-19T04:37:30;95970;;;10;75.5
68891;BME280;55932;48.702;8.884;2023-11-19T04:40:02;95960;;;10;75.5
68891;BME280;55932;48.702;8.884;2023-11-19T04:42:32;95960;;;10;75.5
68891;BME280;55932;48.702;8.884;2023-11-19T04:45:04;95970;;;10;75.5
68891;BME280;55932;48.702;8.884;2023-11-19T04:47:34;95960;;;10;75.5
68891;BME280;55932;48.702;8.884;2023-11-19T04:50:05;95970;;;10;75.5
68891;BME280;55932;48.702;8.884;2023-11-19T04:52:39;95960;;;10;75.5
68891;BME280;55932;48.702;8.884;2023-11-19T04:55:07;95970;;;10;75.5
68891;BME280;55932;48.702;8.884;2023-11-19T04:57:45;95960;;;10;75.5
68891;BME280;55932;48.702;8.884;2023-11-19T05:02:40;95970;;;10;75.5
68891;BME280;55932;48.702;8.884;2023-11-19T05:05:11;95960;;;10.1;75.5
68891;BME280;55932;48.702;8.884;2023-11-19T05:07:42;95950;;;10.1;75.5
68891;BME280;55932;48.702;8.884;2023-11-19T05:10:20;95960;;;10.1;75.5
68891;BME280;55932;48.702;8.884;2023-11-19T05:12:44;95950;;;10.1;75.5
68891;BME280;55932;48.702;8.884;2023-11-19T05:15:22;95950;;;10.1;75.5
68891;BME280;55932;48.702;8.884;2023-11-19T05:17:48;95940;;;10.1;75.5
68891;BME280;55932;48.702;8.884;2023-11-19T05:20:24;95940;;;10.1;75.5
68891;BME280;55932;48.702;8.884;2023-11-19T05:25:26;95950;;;10.2;75.5
68891;BME280;55932;48.702;8.884;2023-11-19T05:27:50;95960;;;10.2;75.5
68891;BME280;55932;48.702;8.884;2023-11-19T05:32:52;95960;;;10.3;75.5
68891;BME280;55932;48.702;8.884;2023-11-19T05:35:23;95960;;;10.3;75.5
68891;BME280;55932;48.702;8.884;2023-11-19T05:37:54;95950;;;10.3;75.5
68891;BME280;55932;48.702;8.884;2023-11-19T05:40:25;95950;;;10.3;75.5
68891;BME280;55932;48.702;8.884;2023-11-19T05:42:56;95950;;;10.4;75.5
68891;BME280;55932;48.702;8.884;2023-11-19T05:45:27;95960;;;10.4;75.5
68891;BME280;55932;48.702;8.884;2023-11-19T05:47:57;95960;;;10.3;75.5
68891;BME280;55932;48.702;8.884;2023-11-19T05:50:28;95960;;;10.4;76
68891;BME280;55932;48.702;8.884;2023-11-19T05:58:01;95960;;;10.4;75.5
68891;BME280;55932;48.702;8.884;2023-11-19T06:03:03;95970;;;10.5;75.5
68891;BME280;55932;48.702;8.884;2023-11-19T06:08:05;95970;;;10.5;75.5
68891;BME280;55932;48.702;8.884;2023-11-19T06:13:07;95960;;;10.4;75.5
68891;BME280;55932;48.702;8.884;2023-11-19T06:18:11;95970;;;10.4;75.5
68891;BME280;55932;48.702;8.884;2023-11-19T06:23:17;95970;;;10.4;75.5
68891;BME280;55932;48.702;8.884;2023-11-19T06:28:13;95970;;;10.5;75.5
68891;BME280;55932;48.702;8.884;2023-11-19T06:33:14;95970;;;10.5;75.5
68891;BME280;55932;48.702;8.884;2023-11-19T06:35:52;95970;;;10.5;75.5
68891;BME280;55932;48.702;8.884;2023-11-19T06:38:47;95980;;;10.5;75.5
68891;BME280;55932;48.702;8.884;2023-11-19T06:43:32;95970;;;10.5;75.5
68891;BME280;55932;48.702;8.884;2023-11-19T06:48:20;95970;;;10.6;75.5
68891;BME280;55932;48.702;8.884;2023-11-19T06:53:22;95980;;;10.5;75.5
68891;BME280;55932;48.702;8.884;2023-11-19T06:55:53;95960;;;10.5;75.5
68891;BME280;55932;48.702;8.884;2023-11-19T06:58:31;95960;;;10.5;75.5
68891;BME280;55932;48.702;8.884;2023-11-19T07:00:55;95970;;;10.4;75.5
68891;BME280;55932;48.702;8.884;2023-11-19T07:03:29;95970;;;10.4;75.5
68891;BME280;55932;48.702;8.884;2023-11-19T07:13:30;95960;;;10.6;75.5
68891;BME280;55932;48.702;8.884;2023-11-19T07:18:32;95970;;;10.8;75.5
68891;BME280;55932;48.702;8.884;2023-11-19T07:21:04;95980;;;10.8;75.5
68891;BME280;55932;48.702;8.884;2023-11-19T07:23:34;95990;;;10.9;75.5
68891;BME280;55932;48.702;8.884;2023-11-19T07:28:36;95990;;;11;75.5
68891;BME280;55932;48.702;8.884;2023-11-19T07:33:38;96000;;;11.1;75.5
68891;BME280;55932;48.702;8.884;2023-11-19T07:36:09;96010;;;11.1;75.5
68891;BME280;55932;48.702;8.884;2023-11-19T07:38:39;96010;;;11.2;75
68891;BME280;55932;48.702;8.884;2023-11-19T07:43:51;96020;;;11.2;75
68891;BME280;55932;48.702;8.884;2023-11-19T07:48:43;96020;;;11.3;75
68891;BME280;55932;48.702;8.884;2023-11-19T07:51:14;96020;;;11.3;75
68891;BME280;55932;48.702;8.884;2023-11-19T07:53:45;96010;;;11.3;75
68891;BME280;55932;48.702;8.884;2023-11-19T07:58:47;96020;;;11.4;75
68891;BME280;55932;48.702;8.884;2023-11-19T08:01:18;96010;;;11.3;75
68891;BME280;55932;48.702;8.884;2023-11-19T08:03:49;96020;;;11.2;75
68891;BME280;55932;48.702;8.884;2023-11-19T08:06:20;96020;;;11.2;75
68891;BME280;55932;48.702;8.884;2023-11-19T08:08:51;96020;;;11.2;75
68891;BME280;55932;48.702;8.884;2023-11-19T08:16:24;96010;;;11.3;75
68891;BME280;55932;48.702;8.884;2023-11-19T08:21:26;96000;;;11.3;75
68891;BME280;55932;48.702;8.884;2023-11-19T08:23:57;96000;;;11.3;75
68891;BME280;55932;48.702;8.884;2023-11-19T08:26:28;96000;;;11.2;75
68891;BME280;55932;48.702;8.884;2023-11-19T08:28:59;96030;;;11.6;75.5
68891;BME280;55932;48.702;8.884;2023-11-19T08:31:30;96020;;;12.6;76
68891;BME280;55932;48.702;8.884;2023-11-19T08:34:01;96030;;;13.3;75
68891;BME280;55932;48.702;8.884;2023-11-19T08:36:32;96030;;;13.2;74
68891;BME280;55932;48.702;8.884;2023-11-19T08:39:03;96030;;;12.9;73.5
68891;BME280;55932;48.702;8.884;2023-11-19T08:41:40;96030;;;12.7;74
68891;BME280;55932;48.702;8.884;2023-11-19T08:46:36;96030;;;12.8;75
68891;BME280;55932;48.702;8.884;2023-11-19T08:49:09;96020;;;13.4;75.5
68891;BME280;55932;48.702;8.884;2023-11-19T08:51:38;96020;;;14.3;75.5
68891;BME280;55932;48.702;8.884;2023-11-19T08:54:09;96010;;;15.2;75
68891;BME280;55932;48.702;8.884;2023-11-19T08:56:42;96020;;;15.7;75
68891;BME280;55932;48.702;8.884;2023-11-19T08:59:11;96030;;;15.3;74
68891;BME280;55932;48.702;8.884;2023-11-19T09:04:12;96030;;;14.5;74.5
68891;BME280;55932;48.702;8.884;2023-11-19T09:06:43;96020;;;14.1;74.5
68891;BME280;55932;48.702;8.884;2023-11-19T09:14:16;96010;;;14.7;75
68891;BME280;55932;48.702;8.884;2023-11-19T09:16:47;96020;;;14.8;74
68891;BME280;55932;48.702;8.884;2023-11-19T09:19:21;96040;;;14.4;74
68891;BME280;55932;48.702;8.884;2023-11-19T09:21:49;96020;;;14.4;74.5
68891;BME280;55932;48.702;8.884;2023-11-19T09:24:27;96030;;;14.8;74.5
68891;BME280;55932;48.702;8.884;2023-11-19T09:29:23;96040;;;16;75.5
68891;BME280;55932;48.702;8.884;2023-11-19T09:31:53;96040;;;16.2;74.5
68891;BME280;55932;48.702;8.884;2023-11-19T09:34:31;96050;;;15.4;74
68891;BME280;55932;48.702;8.884;2023-11-19T09:44:28;96040;;;14.9;75.5
68891;BME280;55932;48.702;8.884;2023-11-19T09:46:59;96030;;;16.1;75
68891;BME280;55932;48.702;8.884;2023-11-19T09:49:33;96020;;;17.1;74.5
68891;BME280;55932;48.702;8.884;2023-11-19T09:54:32;96030;;;16.2;73.5
68891;BME280;55932;48.702;8.884;2023-11-19T09:59:35;96040;;;15;74.5
68891;BME280;55932;48.702;8.884;2023-11-19T10:02:05;96020;;;14.6;75
68891;BME280;55932;48.702;8.884;2023-11-19T10:04:36;96020;;;14.6;75
68891;BME280;55932;48.702;8.884;2023-11-19T10:07:07;96020;;;15.7;75.5
68891;BME280;55932;48.702;8.884;2023-11-19T10:09:38;96020;;;16.1;75
68891;BME280;55932;48.702;8.884;2023-11-19T10:14:39;96010;;;16.4;74.5
68891;BME280;55932;48.702;8.884;2023-11-19T10:22:12;96010;;;15.7;75
68891;BME280;55932;48.702;8.884;2023-11-19T10:24:43;96000;;;16.7;75
68891;BME280;55932;48.702;8.884;2023-11-19T10:27:23;95990;;;17.6;75
68891;BME280;55932;48.702;8.884;2023-11-19T10:29:52;95990;;;18.6;72.5
68891;BME280;55932;48.702;8.884;2023-11-19T10:32:16;96000;;;18.3;73
68891;BME280;55932;48.702;8.884;2023-11-19T10:34:47;95990;;;18;73.5
68891;BME280;55932;48.702;8.884;2023-11-19T10:37:34;96000;;;18.5;73.5
68891;BME280;55932;48.702;8.884;2023-11-19T10:39:51;96000;;;17.9;74
68891;BME280;55932;48.702;8.884;2023-11-19T10:42:26;95990;;;17.7;74.5
68891;BME280;55932;48.702;8.884;2023-11-19T10:47:22;95990;;;19.5;73
68891;BME280;55932;48.702;8.884;2023-11-19T10:52:24;95970;;;20.1;73
68891;BME280;55932;48.702;8.884;2023-11-19T10:54:55;95970;;;20.4;72.5
68891;BME280;55932;48.702;8.884;2023-11-19T11:02:31;95970;;;18.7;74
68891;BME280;55932;48.702;8.884;2023-11-19T11:05:05;95960;;;18.1;75
68891;BME280;55932;48.702;8.884;2023-11-19T11:07:36;95970;;;18.2;74.5
68891;BME280;55932;48.702;8.884;2023-11-19T11:12:32;95960;;;19.4;72.5
68891;BME280;55932;48.702;8.884;2023-11-19T11:15:10;95970;;;19.3;73.5
68891;BME280;55932;48.702;8.884;2023-11-19T11:20:11;95980;;;18.5;74.5
68891;BME280;55932;48.702;8.884;2023-11-19T11:22:44;95990;;;19.6;72.5
68891;BME280;55932;48.702;8.884;2023-11-19T11:25:11;95980;;;18.7;73.5
68891;BME280;55932;48.702;8.884;2023-11-19T11:27:48;95990;;;17.7;74.5
68891;BME280;55932;48.702;8.884;2023-11-19T11:30:11;95980;;;16.6;75.5
68891;BME280;55932;48.702;8.884;2023-11-19T11:32:45;96000;;;15.8;76
68891;BME280;55932;48.702;8.884;2023-11-19T11:37:44;95990;;;15.4;77
68891;BME280;55932;48.702;8.884;2023-11-19T11:40:15;95980;;;15.7;76
68891;BME280;55932;48.702;8.884;2023-11-19T11:42:43;95970;;;16.4;75.5
68891;BME280;55932;48.702;8.884;2023-11-19T11:45:14;95970;;;17.3;74
68891;BME280;55932;48.702;8.884;2023-11-19T11:48:10;95980;;;16.6;75
68891;BME280;55932;48.702;8.884;2023-11-19T11:50:18;95970;;;17.7;73.5
68891;BME280;55932;48.702;8.884;2023-11-19T11:55:25;95950;;;17.9;73.5
68891;BME280;55932;48.702;8.884;2023-11-19T11:57:56;95970;;;17.3;75
68891;BME280;55932;48.702;8.884;2023-11-19T12:00:22;95970;;;16.8;75.5
68891;BME280;55932;48.702;8.884;2023-11-19T12:05:22;95970;;;17.7;74
68891;BME280;55932;48.702;8.884;2023-11-19T12:07:54;95970;;;16.6;75.5
68891;BME280;55932;48.702;8.884;2023-11-19T12:10:28;95990;;;16.8;76
68891;BME280;55932;48.702;8.884;2023-11-19T12:13:04;95970;;;17.3;75.5
68891;BME280;55932;48.702;8.884;2023-11-19T12:15:32;95970;;;18.5;74
68891;BME280;55932;48.702;8.884;2023-11-19T12:17:57;95960;;;18.6;74
68891;BME280;55932;48.702;8.884;2023-11-19T12:20:34;95960;;;19.4;73.5
68891;BME280;55932;48.702;8.884;2023-11-19T12:25:30;95950;;;18.2;74
68891;BME280;55932;48.702;8.884;2023-11-19T12:30:32;95950;;;17.3;75
68891;BME280;55932;48.702;8.884;2023-11-19T12:33:07;95950;;;18.8;73
68891;BME280;55932;48.702;8.884;2023-11-19T12:35:34;95950;;;19.6;72.5
68891;BME280;55932;48.702;8.884;2023-11-19T12:38:05;95940;;;20.3;71.5
68891;BME280;55932;48.702;8.884;2023-11-19T12:40:36;95950;;;19.8;71.5
68891;BME280;55932;48.702;8.884;2023-11-19T12:43:06;95940;;;18.9;73
68891;BME280;55932;48.702;8.884;2023-11-19T12:45:38;95940;;;18.7;73.5
68891;BME280;55932;48.702;8.884;2023-11-19T12:48:08;95930;;;19.5;72.5
68891;BME280;55932;48.702;8.884;2023-11-19T12:50:55;95930;;;19.1;73
68891;BME280;55932;48.702;8.884;2023-11-19T12:53:10;95930;;;19.9;71
68891;BME280;55932;48.702;8.884;2023-11-19T12:55:48;95920;;;19.4;72
68891;BME280;55932;48.702;8.884;2023-11-19T13:03:22;95920;;;18.4;73.5
68891;BME280;55932;48.702;8.884;2023-11-19T13:05:45;95930;;;17.2;74.5
68891;BME280;55932;48.702;8.884;2023-11-19T13:08:16;95940;;;16.6;75
68891;BME280;55932;48.702;8.884;2023-11-19T13:10:54;95920;;;18.2;72
68891;BME280;55932;48.702;8.884;2023-11-19T13:13:18;95920;;;18.1;72.5
68891;BME280;55932;48.702;8.884;2023-11-19T13:15:49;95930;;;16.9;74
68891;BME280;55932;48.702;8.884;2023-11-19T13:20:51;95920;;;18.1;72
68891;BME280;55932;48.702;8.884;2023-11-19T13:23:22;95930;;;19.3;70
68891;BME280;55932;48.702;8.884;2023-11-19T13:25:53;95930;;;18.8;71.5
68891;BME280;55932;48.702;8.884;2023-11-19T13:33:26;95930;;;18.8;70.5
68891;BME280;55932;48.702;8.884;2023-11-19T13:35:57;95920;;;18.1;71.5
68891;BME280;55932;48.702;8.884;2023-11-19T13:38:35;95920;;;17.8;72
68891;BME280;55932;48.702;8.884;2023-11-19T13:40:59;95910;;;17.1;73
68891;BME280;55932;48.702;8.884;2023-11-19T13:43:30;95910;;;17.3;72.5
68891;BME280;55932;48.702;8.884;2023-11-19T13:46:01;95900;;;17.5;72
68891;BME280;55932;48.702;8.884;2023-11-19T13:48:32;95910;;;17.8;71.5
68891;BME280;55932;48.702;8.884;2023-11-19T13:51:03;95900;;;17.9;71.5
68891;BME280;55932;48.702;8.884;2023-11-19T13:53:33;95910;;;18.1;71.5
68891;BME280;55932;48.702;8.884;2023-11-19T13:56:08;95900;;;17.8;72.5
68891;BME280;55932;48.702;8.884;2023-11-19T13:58:43;95910;;;17.3;74
68891;BME280;55932;48.702;8.884;2023-11-19T14:01:13;95900;;;17.3;74.5
68891;BME280;55932;48.702;8.884;2023-11-19T14:03:38;95890;;;17.3;74.5
68891;BME280;55932;48.702;8.884;2023-11-19T14:06:11;95900;;;17.5;74
68891;BME280;55932;48.702;8.884;2023-11-19T14:08:40;95890;;;17.5;73.5
68891;BME280;55932;48.702;8.884;2023-11-19T14:11:11;95900;;;17.2;73.5
68891;BME280;55932;48.702;8.884;2023-11-19T14:16:13;95900;;;18.7;71
68891;BME280;55932;48.702;8.884;2023-11-19T14:18:43;95890;;;18.4;71.5
68891;BME280;55932;48.702;8.884;2023-11-19T14:21:15;95900;;;18.2;71.5
68891;BME280;55932;48.702;8.884;2023-11-19T14:23:45;95900;;;18.2;71.5
68891;BME280;55932;48.702;8.884;2023-11-19T14:31:11;95900;;;17.3;72
68891;BME280;55932;48.702;8.884;2023-11-19T14:33:41;95890;;;17.2;72
68891;BME280;55932;48.702;8.884;2023-11-19T14:36:14;95910;;;17.2;71.5
68891;BME280;55932;48.702;8.884;2023-11-19T14:38:43;95900;;;17.1;71.5
68891;BME280;55932;48.702;8.884;2023-11-19T14:41:14;95900;;;17;71.5
68891;BME280;55932;48.702;8.884;2023-11-19T14:46:21;95910;;;16.9;71.5
68891;BME280;55932;48.702;8.884;2023-11-19T14:48:52;95910;;;16.6;72
68891;BME280;55932;48.702;8.884;2023-11-19T14:51:25;95920;;;16.1;72.5
68891;BME280;55932;48.702;8.884;2023-11-19T14:53:55;95920;;;15.5;73
68891;BME280;55932;48.702;8.884;2023-11-19T14:59:03;95910;;;13.6;75
68891;BME280;55932;48.702;8.884;2023-11-19T15:03:58;95920;;;12.7;76.5
68891;BME280;55932;48.702;8.884;2023-11-19T15:06:29;95910;;;12.5;76.5
68891;BME280;55932;48.702;8.884;2023-11-19T15:09:06;95910;;;12.4;76.5
68891;BME280;55932;48.702;8.884;2023-11-19T15:11:36;95920;;;12.3;76.5
68891;BME280;55932;48.702;8.884;2023-11-19T15:16:30;95920;;;11.9;77
68891;BME280;55932;48.702;8.884;2023-11-19T15:19:01;95910;;;11.9;77
68891;BME280;55932;48.702;8.884;2023-11-19T15:21:32;95920;;;11.8;77
68891;BME280;55932;48.702;8.884;2023-11-19T15:24:03;95930;;;11.7;77
68891;BME280;55932;48.702;8.884;2023-11-19T15:26:40;95930;;;11.7;77
68891;BME280;55932;48.702;8.884;2023-11-19T15:31:36;95910;;;11.5;77
68891;BME280;55932;48.702;8.884;2023-11-19T15:34:08;95910;;;11.5;77
68891;BME280;55932;48.702;8.884;2023-11-19T15:36:38;95910;;;11.4;77
68891;BME280;55932;48.702;8.884;2023-11-19T15:39:15;95910;;;11.3;77
68891;BME280;55932;48.702;8.884;2023-11-19T15:41:52;95910;;;11.3;77
68891;BME280;55932;48.702;8.884;2023-11-19T15:44:18;95900;;;11.3;77
68891;BME280;55932;48.702;8.884;2023-11-19T15:46:45;95910;;;11.2;77
68891;BME280;55932;48.702;8.884;2023-11-19T15:49:09;95910;;;11.1;77
68891;BME280;55932;48.702;8.884;2023-11-19T15:51:40;95910;;;10.9;77.5
68891;BME280;55932;48.702;8.884;2023-11-19T15:54:18;95910;;;10.9;77.5
68891;BME280;55932;48.702;8.884;2023-11-19T15:59:14;95910;;;10.8;77
68891;BME280;55932;48.702;8.884;2023-11-19T16:01:50;95900;;;10.7;77
68891;BME280;55932;48.702;8.884;2023-11-19T16:04:21;95910;;;10.7;77
68891;BME280;55932;48.702;8.884;2023-11-19T16:06:51;95910;;;10.5;77.5
68891;BME280;55932;48.702;8.884;2023-11-19T16:11:53;95910;;;10.5;77.5
68891;BME280;55932;48.702;8.884;2023-11-19T16:14:23;95910;;;10.5;77
68891;BME280;55932;48.702;8.884;2023-11-19T16:16:53;95920;;;10.5;77
68891;BME280;55932;48.702;8.884;2023-11-19T16:19:23;95910;;;10.7;77
68891;BME280;55932;48.702;8.884;2023-11-19T16:22:03;95920;;;10.9;77
68891;BME280;55932;48.702;8.884;2023-11-19T16:26:47;95940;;;11;76.5
68891;BME280;55932;48.702;8.884;2023-11-19T16:29:18;95930;;;10.8;76.5
68891;BME280;55932;48.702;8.884;2023-11-19T16:31:49;95930;;;10.8;77
68891;BME280;55932;48.702;8.884;2023-11-19T16:34:20;95920;;;10.8;76.5
68891;BME280;55932;48.702;8.884;2023-11-19T16:36:50;95920;;;10.7;77
68891;BME280;55932;48.702;8.884;2023-11-19T16:39:22;95930;;;10.5;77
68891;BME280;55932;48.702;8.884;2023-11-19T16:41:53;95930;;;10.3;77
68891;BME280;55932;48.702;8.884;2023-11-19T16:44:23;95940;;;10.2;77.5
68891;BME280;55932;48.702;8.884;2023-11-19T16:47:01;95940;;;10.2;77.5
68891;BME280;55932;48.702;8.884;2023-11-19T16:49:32;95940;;;10.3;77.5
68891;BME280;55932;48.702;8.884;2023-11-19T16:52:15;95940;;;10.5;77
68891;BME280;55932;48.702;8.884;2023-11-19T16:54:45;95930;;;10.7;77
68891;BME280;55932;48.702;8.884;2023-11-19T16:57:02;95930;;;10.6;77
68891;BME280;55932;48.702;8.884;2023-11-19T17:02:01;95940;;;10.5;77
68891;BME280;55932;48.702;8.884;2023-11-19T17:04:27;95940;;;10.4;77
68891;BME280;55932;48.702;8.884;2023-11-19T17:09:29;95940;;;10.3;77
68891;BME280;55932;48.702;8.884;2023-11-19T17:12:00;95950;;;10.1;77
68891;BME280;55932;48.702;8.884;2023-11-19T17:14:37;95950;;;10;77
68891;BME280;55932;48.702;8.884;2023-11-19T17:19:33;95960;;;10.1;77.5
68891;BME280;55932;48.702;8.884;2023-11-19T17:24:44;95980;;;10.2;77
68891;BME280;55932;48.702;8.884;2023-11-19T17:27:06;95980;;;10.2;77
68891;BME280;55932;48.702;8.884;2023-11-19T17:29:39;95980;;;10.2;77
68891;BME280;55932;48.702;8.884;2023-11-19T17:32:08;95990;;;10.1;77
68891;BME280;55932;48.702;8.884;2023-11-19T17:34:39;95980;;;10;77
68891;BME280;55932;48.702;8.884;2023-11-19T17:37:09;95980;;;9.9;77
68891;BME280;55932;48.702;8.884;2023-11-19T17:39:42;95970;;;9.7;77.5
68891;BME280;55932;48.702;8.884;2023-11-19T17:42:18;95980;;;9.6;77.5
68891;BME280;55932;48.702;8.884;2023-11-19T17:47:13;95980;;;9.4;77.5
68891;BME280;55932;48.702;8.884;2023-11-19T17:52:22;95990;;;9.3;78
68891;BME280;55932;48.702;8.884;2023-11-19T17:54:52;95980;;;9.3;78
68891;BME280;55932;48.702;8.884;2023-11-19T17:57:25;95980;;;9.4;77.5
68891;BME280;55932;48.702;8.884;2023-11-19T17:59:52;95990;;;9.3;77.5
68891;BME280;55932;48.702;8.884;2023-11-19T18:02:23;95990;;;9.4;77.5
68891;BME280;55932;48.702;8.884;2023-11-19T18:07:24;95980;;;9.5;77.5
68891;BME280;55932;48.702;8.884;2023-11-19T18:14:50;95970;;;9.7;77
68891;BME280;55932;48.702;8.884;2023-11-19T18:17:22;95970;;;9.6;77
68891;BME280;55932;48.702;8.884;2023-11-19T18:22:30;95980;;;9.6;77
68891;BME280;55932;48.702;8.884;2023-11-19T18:25:00;95980;;;9.6;77
68891;BME280;55932;48.702;8.884;2023-11-19T18:29:54;95990;;;9.6;77
68891;BME280;55932;48.702;8.884;2023-11-19T18:32:25;95980;;;9.6;77
68891;BME280;55932;48.702;8.884;2023-11-19T18:34:56;95990;;;9.6;77
68891;BME280;55932;48.702;8.884;2023-11-19T18:37:33;95990;;;9.5;77
68891;BME280;55932;48.702;8.884;2023-11-19T18:40:05;95990;;;9.5;77
68891;BME280;55932;48.702;8.884;2023-11-19T18:45:00;95990;;;9.6;77
68891;BME280;55932;48.702;8.884;2023-11-19T18:47:31;95970;;;9.7;77
68891;BME280;55932;48.702;8.884;2023-11-19T18:50:09;95980;;;9.6;77
68891;BME280;55932;48.702;8.884;2023-11-19T18:52:48;95980;;;9.6;77
68891;BME280;55932;48.702;8.884;2023-11-19T18:55:16;95970;;;9.6;77
68891;BME280;55932;48.702;8.884;2023-11-19T18:57:39;95980;;;9.5;77
68891;BME280;55932;48.702;8.884;2023-11-19T19:00:22;95980;;;9.6;77
68891;BME280;55932;48.702;8.884;2023-11-19T19:02:52;95990;;;9.6;77
68891;BME280;55932;48.702;8.884;2023-11-19T19:05:23;95990;;;9.6;77
68891;BME280;55932;48.702;8.884;2023-11-19T19:10:04;95990;;;9.6;77
68891;BME280;55932;48.702;8.884;2023-11-19T19:12:34;96000;;;9.4;77
68891;BME280;55932;48.702;8.884;2023-11-19T19:15:06;96000;;;9.6;77
68891;BME280;55932;48.702;8.884;2023-11-19T19:17:37;95990;;;9.7;76.5
68891;BME280;55932;48.702;8.884;2023-11-19T19:20:14;95990;;;9.7;76.5
68891;BME280;55932;48.702;8.884;2023-11-19T19:22:38;95990;;;9.7;76.5
68891;BME280;55932;48.702;8.884;2023-11-19T19:25:16;95990;;;9.9;76.5
68891;BME280;55932;48.702;8.884;2023-11-19T19:32:42;96000;;;10.7;76